Time;durP1;ratioP1;P1;durP2;ratioP2;P2;SDS_P1;SDS_P2;PMS_P1;PMS_P2;Temp;Humidity;BMP_temperature;BMP_pressure;BME280_temperature;BME280_humidity;BME280_pressure;Samples;Min_cycle;Max_cycle;Signal;HPM_P1;HPM_P2
2022/03/01 18:53:23;;;;;;;3.83;1.25;;;2.50;60.70;;;;;;6317998;22;1278094;-63
2022/03/01 18:55:49;;;;;;;6.00;1.60;;;2.40;59.90;;;;;;6303484;22;20007;-64
2022/03/01 18:58:16;;;;;;;2.03;1.40;;;2.30;59.90;;;;;;6303577;22;20018;-64
2022/03/01 19:00:42;;;;;;;2.38;1.70;;;2.30;59.30;;;;;;6301513;22;20037;-63
2022/03/01 19:03:09;;;;;;;4.63;1.85;;;2.30;58.90;;;;;;6300909;22;20076;-63
2022/03/01 19:05:37;;;;;;;5.45;2.42;;;2.30;60.00;;;;;;6303893;22;20006;-63
2022/03/01 19:08:03;;;;;;;3.72;2.03;;;2.30;59.00;;;;;;6303116;22;20003;-62
2022/03/01 19:10:29;;;;;;;2.35;1.10;;;2.30;58.20;;;;;;6301981;22;20081;-62
2022/03/01 19:12:55;;;;;;;1.85;1.40;;;2.20;59.30;;;;;;6301381;22;20037;-63
2022/03/01 19:15:21;;;;;;;3.35;1.35;;;2.00;59.80;;;;;;6293902;22;20007;-63
2022/03/01 19:17:48;;;;;;;3.72;1.83;;;1.90;62.40;;;;;;6295232;22;20007;-64
2022/03/01 19:20:15;;;;;;;4.22;2.20;;;1.90;63.60;;;;;;6294196;22;19999;-64
2022/03/01 19:22:41;;;;;;;3.58;1.38;;;2.00;63.70;;;;;;6296141;22;20054;-64
2022/03/01 19:25:08;;;;;;;2.72;1.17;;;2.00;62.10;;;;;;6294684;22;20007;-63
2022/03/01 19:27:34;;;;;;;3.30;1.88;;;2.00;61.90;;;;;;6295838;22;20317;-64
2022/03/01 19:30:01;;;;;;;2.42;1.30;;;2.00;62.30;;;;;;6294364;22;20072;-64
2022/03/01 19:32:26;;;;;;;2.10;1.40;;;1.90;62.20;;;;;;6296534;22;20012;-63
2022/03/01 19:34:52;;;;;;;5.32;1.80;;;1.70;62.20;;;;;;6294801;22;20018;-63
2022/03/01 19:37:19;;;;;;;2.97;1.67;;;1.70;66.80;;;;;;6294079;22;20178;-63
2022/03/01 19:39:44;;;;;;;2.83;1.70;;;1.70;66.60;;;;;;6293387;22;20006;-63
2022/03/01 19:42:12;;;;;;;7.65;4.18;;;1.70;67.20;;;;;;6271268;22;20012;-69
2022/03/01 19:44:38;;;;;;;8.52;4.50;;;1.70;66.50;;;;;;6250987;22;20069;-70
2022/03/01 19:47:05;;;;;;;4.28;2.67;;;1.80;65.20;;;;;;6264665;22;20453;-70
2022/03/01 19:49:31;;;;;;;1.95;1.10;;;1.90;64.80;;;;;;6263866;22;20012;-71
2022/03/01 19:51:57;;;;;;;4.70;2.25;;;1.80;62.40;;;;;;6236093;22;20075;-70
2022/03/01 19:54:23;;;;;;;3.50;2.42;;;1.60;62.30;;;;;;6263481;22;20079;-70
2022/03/01 19:56:49;;;;;;;3.97;2.60;;;1.30;62.00;;;;;;6265085;22;20000;-70
2022/03/01 19:59:14;;;;;;;3.20;2.00;;;1.20;63.90;;;;;;6261066;22;20039;-70
2022/03/01 20:01:40;;;;;;;3.90;2.42;;;1.20;67.90;;;;;;6260278;22;20824;-71
2022/03/01 20:04:06;;;;;;;11.35;5.88;;;1.20;68.40;;;;;;6260508;22;20794;-71
2022/03/01 20:06:32;;;;;;;10.60;6.43;;;1.30;66.60;;;;;;6264807;22;20004;-73
2022/03/01 20:09:00;;;;;;;2.70;1.77;;;1.50;68.30;;;;;;6236882;22;20541;-71
2022/03/01 20:11:26;;;;;;;4.50;2.13;;;1.50;67.80;;;;;;6263337;22;20006;-71
2022/03/01 20:13:52;;;;;;;4.28;2.40;;;1.30;66.90;;;;;;6258348;22;20027;-70
2022/03/01 20:16:19;;;;;;;5.32;3.92;;;1.00;65.30;;;;;;6264686;22;20007;-72
2022/03/01 20:18:46;;;;;;;7.03;3.72;;;0.60;66.40;;;;;;6265637;22;20010;-71
2022/03/01 20:21:12;;;;;;;12.73;4.88;;;0.50;68.50;;;;;;6265102;22;20046;-70
2022/03/01 20:23:38;;;;;;;7.30;4.30;;;0.50;69.60;;;;;;6264055;22;20011;-70
2022/03/01 20:26:07;;;;;;;6.78;3.50;;;0.60;69.60;;;;;;6265034;22;20026;-72
2022/03/01 20:28:33;;;;;;;6.93;4.20;;;0.70;69.30;;;;;;6264002;22;20070;-70
2022/03/01 20:30:59;;;;;;;8.30;4.78;;;0.70;69.50;;;;;;6264002;22;19996;-69
2022/03/01 20:33:25;;;;;;;11.20;4.43;;;0.80;69.40;;;;;;6261688;22;20011;-70
2022/03/01 20:35:51;;;;;;;4.18;2.40;;;0.80;68.90;;;;;;6263874;22;20000;-70
2022/03/01 20:38:17;;;;;;;6.97;4.50;;;0.80;68.90;;;;;;6264673;22;20004;-71
2022/03/01 20:40:43;;;;;;;12.48;7.05;;;0.80;67.40;;;;;;6264747;22;19996;-70
2022/03/01 20:43:09;;;;;;;13.45;8.10;;;0.60;67.10;;;;;;6259597;22;20356;-71
2022/03/01 20:45:35;;;;;;;11.38;5.78;;;0.50;67.70;;;;;;6263967;22;20083;-70
2022/03/01 20:48:01;;;;;;;6.28;3.72;;;0.50;68.80;;;;;;6264700;22;20034;-69
2022/03/01 20:50:36;;;;;;;11.60;5.18;;;0.60;69.20;;;;;;6264965;22;20061;-70
2022/03/01 20:53:04;;;;;;;18.83;10.75;;;0.70;69.00;;;;;;6259817;22;20023;-70
2022/03/01 20:55:29;;;;;;;16.98;10.48;;;0.80;67.70;;;;;;6264300;22;20008;-68
2022/03/01 20:57:55;;;;;;;18.45;10.45;;;0.90;68.50;;;;;;6262390;22;20069;-69
2022/03/01 21:00:25;;;;;;;23.77;14.20;;;0.90;69.50;;;;;;6262781;22;20022;-69
2022/03/01 21:02:51;;;;;;;10.95;7.32;;;0.90;68.60;;;;;;6262855;22;20030;-68
2022/03/01 21:05:17;;;;;;;15.95;8.63;;;0.90;69.40;;;;;;6263524;22;20436;-68
2022/03/01 21:07:43;;;;;;;12.85;8.48;;;0.80;68.80;;;;;;6264108;22;20006;-68
2022/03/01 21:10:09;;;;;;;11.40;5.45;;;0.80;70.70;;;;;;6265376;22;20012;-69
2022/03/01 21:12:35;;;;;;;9.90;5.60;;;0.70;70.30;;;;;;6263976;22;20039;-69
2022/03/01 21:15:01;;;;;;;22.30;11.73;;;0.60;71.30;;;;;;6263363;22;20018;-69
2022/03/01 21:17:27;;;;;;;27.08;15.90;;;0.60;71.10;;;;;;6263863;22;20429;-69
2022/03/01 21:19:53;;;;;;;28.52;15.98;;;0.60;71.80;;;;;;6264139;22;20007;-69
2022/03/01 21:22:18;;;;;;;25.35;13.82;;;0.70;70.70;;;;;;6264694;22;20014;-68
2022/03/01 21:24:44;;;;;;;16.73;9.85;;;0.80;70.40;;;;;;6265516;22;20018;-68
2022/03/01 21:27:10;;;;;;;21.75;11.55;;;0.50;69.60;;;;;;6263093;22;19999;-68
2022/03/01 21:29:36;;;;;;;38.40;22.80;;;0.30;70.90;;;;;;6264368;22;20015;-69
2022/03/01 21:32:02;;;;;;;25.35;16.08;;;0.50;71.00;;;;;;6263596;22;20012;-68
2022/03/01 21:34:28;;;;;;;13.68;8.75;;;0.60;72.90;;;;;;6233959;22;20014;-69
2022/03/01 21:36:54;;;;;;;9.35;5.00;;;0.70;73.70;;;;;;6263667;22;20008;-69
2022/03/01 21:39:20;;;;;;;10.30;5.38;;;0.50;72.80;;;;;;6236876;22;20012;-68
2022/03/01 21:41:46;;;;;;;11.75;6.55;;;0.30;70.80;;;;;;6264893;22;20023;-68
2022/03/01 21:44:15;;;;;;;12.05;6.88;;;0.20;73.10;;;;;;6262977;22;20348;-68
2022/03/01 21:46:41;;;;;;;21.27;11.27;;;0.20;73.60;;;;;;6265646;22;20507;-67
2022/03/01 21:49:08;;;;;;;17.08;8.80;;;0.20;72.60;;;;;;6264279;22;20011;-68
2022/03/01 21:51:34;;;;;;;14.55;7.85;;;0.20;74.10;;;;;;6265540;22;20003;-79
2022/03/01 21:53:59;;;;;;;9.70;5.63;;;0.30;72.60;;;;;;6264682;22;20470;-80
2022/03/01 21:56:26;;;;;;;11.48;6.38;;;0.10;71.30;;;;;;6265802;22;20004;-79
2022/03/01 21:58:52;;;;;;;13.98;8.82;;;0.00;72.20;;;;;;6262526;22;20019;-77
2022/03/01 22:01:18;;;;;;;18.13;10.15;;;-0.20;74.40;;;;;;6264739;22;20093;-76
2022/03/01 22:03:44;;;;;;;21.15;13.02;;;-0.10;74.40;;;;;;6234669;22;20479;-77
2022/03/01 22:06:10;;;;;;;28.83;17.98;;;0.00;75.10;;;;;;6236755;22;20004;-78
2022/03/01 22:08:37;;;;;;;30.17;16.48;;;0.00;74.50;;;;;;6265849;22;20021;-77
2022/03/01 22:11:03;;;;;;;10.52;6.78;;;0.10;73.70;;;;;;6264398;22;20006;-75
2022/03/01 22:13:29;;;;;;;7.68;4.00;;;0.00;73.00;;;;;;6263938;22;20011;-75
2022/03/01 22:15:55;;;;;;;8.05;4.85;;;0.00;73.20;;;;;;6236314;22;20010;-74
2022/03/01 22:18:21;;;;;;;10.23;6.28;;;-0.10;74.40;;;;;;6263279;22;20513;-73
2022/03/01 22:20:47;;;;;;;12.02;7.10;;;-0.10;75.00;;;;;;6263080;22;20007;-75
2022/03/01 22:23:13;;;;;;;15.65;7.47;;;-0.10;76.50;;;;;;6262953;22;20104;-74
2022/03/01 22:25:42;;;;;;;15.15;9.27;;;0.00;75.80;;;;;;6264725;22;20110;-74
2022/03/01 22:28:08;;;;;;;16.95;10.15;;;0.00;76.10;;;;;;6263962;22;20030;-76
2022/03/01 22:30:34;;;;;;;17.35;10.88;;;0.00;76.60;;;;;;6263597;22;20044;-76
2022/03/01 22:33:00;;;;;;;19.77;12.07;;;0.10;77.00;;;;;;6264415;22;20012;-76
2022/03/01 22:35:26;;;;;;;13.68;7.85;;;0.10;75.10;;;;;;6262402;22;20131;-76
2022/03/01 22:37:51;;;;;;;8.05;5.28;;;0.20;74.30;;;;;;6262784;22;20011;-76
2022/03/01 22:40:18;;;;;;;12.52;4.90;;;0.00;74.80;;;;;;6263411;22;20003;-76
2022/03/01 22:42:45;;;;;;;5.63;4.00;;;-0.10;77.00;;;;;;6264037;22;20034;-76
2022/03/01 22:45:11;;;;;;;8.43;4.65;;;-0.20;78.30;;;;;;6264577;22;20093;-76
2022/03/01 22:47:44;;;;;;;8.30;4.85;;;-0.20;79.00;;;;;;6264650;22;20038;-76
2022/03/01 22:50:12;;;;;;;9.55;5.13;;;-0.20;79.50;;;;;;6264347;22;20018;-76
2022/03/01 22:52:39;;;;;;;12.70;6.25;;;-0.20;80.30;;;;;;6265446;22;20476;-75
2022/03/01 22:55:08;;;;;;;7.85;4.72;;;-0.20;80.50;;;;;;6265120;22;20007;-74
2022/03/01 22:57:35;;;;;;;30.90;16.05;;;-0.10;79.70;;;;;;6266043;22;20003;-72
2022/03/01 23:00:02;;;;;;;27.90;15.25;;;0.00;77.90;;;;;;6266096;22;20008;-73
2022/03/01 23:02:27;;;;;;;49.72;22.88;;;0.10;77.30;;;;;;6267037;22;20075;-76
2022/03/01 23:04:53;;;;;;;18.90;9.48;;;0.20;77.20;;;;;;6265405;22;20468;-75
2022/03/01 23:07:27;;;;;;;9.00;5.95;;;0.00;76.60;;;;;;6267033;22;20022;-81
2022/03/01 23:09:58;;;;;;;6.63;4.43;;;-0.30;77.80;;;;;;6265957;22;20719;-74
2022/03/01 23:12:25;;;;;;;13.02;6.38;;;-0.40;79.80;;;;;;6267365;22;20016;-73
2022/03/01 23:14:55;;;;;;;13.32;6.22;;;-0.40;81.70;;;;;;6266537;22;20007;-74
2022/03/01 23:17:20;;;;;;;7.63;5.03;;;-0.30;81.60;;;;;;6266930;22;20442;-74
2022/03/01 23:19:46;;;;;;;9.05;4.68;;;-0.30;80.30;;;;;;6265610;22;20000;-74
2022/03/01 23:22:12;;;;;;;9.68;5.25;;;-0.50;80.50;;;;;;6266670;22;20094;-73
2022/03/01 23:24:38;;;;;;;8.07;5.30;;;-0.50;80.40;;;;;;6265872;22;20088;-74
2022/03/01 23:27:04;;;;;;;7.78;4.88;;;-0.60;79.90;;;;;;6265511;22;20604;-72
2022/03/01 23:29:30;;;;;;;8.63;4.72;;;-0.60;79.60;;;;;;6267252;22;20063;-72
2022/03/01 23:31:56;;;;;;;11.63;6.68;;;-0.40;79.70;;;;;;6264363;22;20011;-75
2022/03/01 23:34:21;;;;;;;7.80;4.65;;;-0.30;80.00;;;;;;6265678;22;20019;-75
2022/03/01 23:36:47;;;;;;;8.55;5.68;;;-0.20;79.50;;;;;;6265639;22;20004;-74
2022/03/01 23:39:13;;;;;;;6.85;4.53;;;-0.20;78.90;;;;;;6239636;22;20015;-76
2022/03/01 23:41:38;;;;;;;8.90;5.72;;;-0.20;80.00;;;;;;6266764;22;20003;-75
2022/03/01 23:44:04;;;;;;;10.95;6.45;;;-0.20;79.50;;;;;;6265403;22;20015;-75
2022/03/01 23:46:30;;;;;;;14.25;6.95;;;-0.10;80.10;;;;;;6266432;22;20071;-79
2022/03/01 23:48:56;;;;;;;11.52;6.20;;;-0.10;80.40;;;;;;6265948;22;20034;-78
2022/03/01 23:51:22;;;;;;;10.63;7.13;;;0.00;78.90;;;;;;6265327;22;20776;-74
2022/03/01 23:53:48;;;;;;;12.60;6.93;;;0.00;80.20;;;;;;6266666;22;20031;-78
2022/03/01 23:56:14;;;;;;;8.75;5.82;;;0.00;80.10;;;;;;6264803;22;20018;-76
2022/03/01 23:58:42;;;;;;;7.00;4.95;;;0.00;80.50;;;;;;6266270;22;20003;-76
